Time;durP1;ratioP1;P1;durP2;ratioP2;P2;SDS_P1;SDS_P2;PMS_P1;PMS_P2;Temp;Humidity;BMP_temperature;BMP_pressure;BME280_temperature;BME280_humidity;BME280_pressure;Samples;Min_cycle;Max_cycle;Signal;HPM_P1;HPM_P2
2021/08/01 00:01:26;;;;;;;2.17;1.88;;;;;;;16.23;70.95;100041.03;3563653;40;20093;-43
2021/08/01 00:03:53;;;;;;;4.35;2.65;;;;;;;16.28;70.81;100034.97;3560449;40;20053;-43
2021/08/01 00:06:25;;;;;;;4.63;2.83;;;;;;;16.22;71.17;100036.72;3560545;40;20049;-45
2021/08/01 00:08:53;;;;;;;3.05;2.80;;;;;;;16.15;71.62;100029.91;3564047;40;20049;-45
2021/08/01 00:13:54;;;;;;;2.72;2.08;;;;;;;16.17;71.81;100030.72;3570446;40;20413;-50
2021/08/01 00:16:23;;;;;;;4.90;2.03;;;;;;;15.96;72.43;100024.88;3582328;40;20075;-52
2021/08/01 00:18:50;;;;;;;5.10;2.20;;;;;;;15.73;73.73;100019.00;3577120;40;20146;-54
2021/08/01 00:21:18;;;;;;;2.63;2.17;;;;;;;15.56;75.23;100019.06;3584181;40;20527;-56
2021/08/01 00:23:45;;;;;;;2.53;2.17;;;;;;;15.59;74.24;100013.03;3584096;40;20475;-55
2021/08/01 00:26:12;;;;;;;3.58;1.98;;;;;;;15.62;74.70;100025.91;3584155;40;20072;-53
2021/08/01 00:28:39;;;;;;;4.45;2.45;;;;;;;15.58;74.35;100013.91;3584301;40;20095;-54
2021/08/01 00:31:06;;;;;;;5.10;1.98;;;;;;;15.80;74.35;100023.25;3584254;40;20123;-54
2021/08/01 00:33:33;;;;;;;2.67;2.10;;;;;;;15.36;76.00;100014.00;3583988;40;20131;-53
2021/08/01 00:36:00;;;;;;;6.88;2.42;;;;;;;15.20;77.29;100020.09;3584191;40;20084;-55
2021/08/01 00:38:27;;;;;;;2.92;2.00;;;;;;;15.43;76.81;100015.69;3583744;40;20058;-54
2021/08/01 00:40:54;;;;;;;4.65;2.10;;;;;;;15.39;77.60;100028.59;3584462;40;20055;-52
2021/08/01 00:43:21;;;;;;;2.47;2.05;;;;;;;15.26;78.02;100025.25;3583874;40;20096;-53
2021/08/01 00:45:49;;;;;;;2.88;2.20;;;;;;;15.59;76.86;100023.34;3584085;40;20056;-53
2021/08/01 00:48:16;;;;;;;3.90;2.25;;;;;;;15.52;77.72;100019.94;3584117;40;20052;-51
2021/08/01 00:50:43;;;;;;;3.33;2.20;;;;;;;15.58;77.53;100013.91;3583790;40;20044;-50
2021/08/01 00:53:11;;;;;;;2.80;2.17;;;;;;;15.61;77.54;100011.28;3583999;40;20088;-52
2021/08/01 00:55:40;;;;;;;2.35;2.20;;;;;;;15.64;77.29;100017.34;3583370;40;20438;-51
2021/08/01 00:58:08;;;;;;;2.65;2.30;;;;;;;15.53;78.69;100012.22;3583687;40;20499;-53
2021/08/01 01:03:20;;;;;;;5.80;2.63;;;;;;;15.46;79.10;100012.25;3583665;40;20060;-56
2021/08/01 01:06:02;;;;;;;4.13;2.50;;;;;;;15.69;78.06;100015.56;3583878;40;20134;-53
2021/08/01 01:08:54;;;;;;;3.63;2.30;;;;;;;15.49;79.18;100018.25;3583081;40;20040;-52
2021/08/01 01:11:27;;;;;;;3.05;2.33;;;;;;;15.71;78.12;100018.13;3583764;40;20454;-55
2021/08/01 01:13:56;;;;;;;2.83;2.30;;;;;;;15.62;78.18;100020.75;3584184;40;20044;-50
2021/08/01 01:16:25;;;;;;;3.22;2.60;;;;;;;15.59;78.46;100028.53;3583666;40;20153;-51
2021/08/01 01:18:57;;;;;;;4.00;2.58;;;;;;;15.31;79.72;100031.22;3583692;40;20059;-54
2021/08/01 01:21:55;;;;;;;2.83;2.50;;;;;;;15.48;79.33;100026.88;3583862;40;20077;-54
2021/08/01 01:24:26;;;;;;;2.88;2.20;;;;;;;15.18;80.78;100032.13;3567531;40;20061;-50
2021/08/01 01:27:08;;;;;;;3.78;2.25;;;;;;;15.06;81.56;100024.44;3584097;40;20055;-52
2021/08/01 01:30:01;;;;;;;3.92;2.67;;;;;;;15.19;81.74;100029.53;3583399;40;20353;-56
2021/08/01 01:32:41;;;;;;;2.90;2.10;;;;;;;15.13;81.63;100031.31;3583246;40;20057;-57
2021/08/01 01:35:13;;;;;;;2.38;2.10;;;;;;;15.09;81.83;100039.91;3583631;40;20092;-55
2021/08/01 01:37:42;;;;;;;4.20;2.70;;;;;;;15.15;82.32;100035.56;3583173;40;20090;-53
2021/08/01 01:40:11;;;;;;;3.85;2.60;;;;;;;15.19;81.88;100034.69;3584006;40;20044;-57
2021/08/01 01:42:39;;;;;;;4.75;2.42;;;;;;;15.12;83.08;100029.59;3583379;40;20093;-52
2021/08/01 01:45:07;;;;;;;2.88;2.20;;;;;;;15.28;81.76;100021.78;3583862;40;20450;-54
2021/08/01 01:47:34;;;;;;;3.08;2.35;;;;;;;15.30;81.42;100019.22;3583285;40;20075;-52
2021/08/01 01:50:03;;;;;;;2.78;2.58;;;;;;;15.00;83.24;100009.84;3583976;40;20338;-54
2021/08/01 01:52:31;;;;;;;5.97;2.40;;;;;;;15.07;83.22;100019.28;3583453;40;20091;-52
2021/08/01 01:54:59;;;;;;;3.03;2.60;;;;;;;15.39;82.19;100023.44;3584026;40;20075;-52
2021/08/01 01:57:26;;;;;;;4.25;3.25;;;;;;;15.15;82.56;100017.53;3583674;40;20067;-54
2021/08/01 01:59:53;;;;;;;4.10;2.70;;;;;;;14.82;84.23;100015.91;3583819;40;20358;-54
2021/08/01 02:02:20;;;;;;;2.88;2.67;;;;;;;15.23;83.25;100012.34;3583281;40;20376;-57
2021/08/01 02:04:47;;;;;;;3.63;2.72;;;;;;;15.25;82.47;100019.22;3583033;40;20055;-53
2021/08/01 02:07:14;;;;;;;3.85;2.63;;;;;;;15.12;82.67;100021.84;3583544;40;20346;-55
2021/08/01 02:10:01;;;;;;;4.25;3.00;;;;;;;15.30;82.68;100024.38;3583092;40;20446;-52
2021/08/01 02:12:35;;;;;;;3.35;2.75;;;;;;;15.11;83.27;100023.56;3582367;39;20048;-56
2021/08/01 02:15:06;;;;;;;3.28;3.00;;;;;;;15.10;83.78;100021.84;3583582;40;20157;-55
2021/08/01 02:17:54;;;;;;;4.55;3.03;;;;;;;15.17;83.17;100026.13;3582565;40;20052;-51
2021/08/01 02:20:26;;;;;;;3.20;2.80;;;;;;;15.00;84.75;100038.22;3583185;40;20076;-53
2021/08/01 02:22:54;;;;;;;4.20;3.15;;;;;;;15.13;83.62;100033.88;3583472;39;20099;-50
2021/08/01 02:25:23;;;;;;;4.78;2.95;;;;;;;15.25;83.01;100037.28;3583139;40;20092;-52
2021/08/01 02:27:51;;;;;;;5.47;2.95;;;;;;;15.29;82.79;100038.97;3583284;40;20092;-54
2021/08/01 02:30:18;;;;;;;3.25;3.03;;;;;;;15.19;83.56;100039.00;3583169;40;20410;-55
2021/08/01 02:32:48;;;;;;;3.85;2.90;;;;;;;15.02;84.71;100037.34;3583026;39;20111;-51
2021/08/01 02:35:16;;;;;;;3.50;3.20;;;;;;;14.90;85.44;100034.81;3583516;40;20112;-52
2021/08/01 02:37:45;;;;;;;6.63;3.17;;;;;;;14.80;86.06;100024.53;3582553;40;20488;-53
2021/08/01 02:40:16;;;;;;;4.15;2.72;;;;;;;15.00;85.84;100020.16;3580363;40;20427;-53
2021/08/01 02:42:45;;;;;;;4.78;3.08;;;;;;;14.93;86.72;100021.03;3582291;39;20421;-54
2021/08/01 02:45:13;;;;;;;5.53;2.83;;;;;;;15.06;85.58;100024.44;3583086;40;20088;-56
2021/08/01 02:47:42;;;;;;;4.35;3.55;;;;;;;15.19;85.39;100041.59;3582845;40;20108;-51
2021/08/01 02:50:10;;;;;;;3.97;3.10;;;;;;;14.98;86.24;100038.22;3583411;40;20068;-56
2021/08/01 02:52:41;;;;;;;3.60;2.95;;;;;;;15.22;85.05;100041.59;3582737;39;20089;-55
2021/08/01 02:55:11;;;;;;;4.47;3.13;;;;;;;15.22;84.82;100042.44;3583404;40;20071;-50
2021/08/01 02:57:43;;;;;;;3.40;3.08;;;;;;;15.29;84.64;100038.09;3582492;40;20053;-52
2021/08/01 03:00:11;;;;;;;4.97;3.17;;;;;;;15.29;84.94;100036.38;3582850;40;20056;-51
2021/08/01 03:02:38;;;;;;;6.85;3.60;;;;;;;15.20;85.82;100030.41;3582666;39;20104;-51
2021/08/01 03:05:09;;;;;;;3.88;3.38;;;;;;;15.00;86.17;100028.75;3583354;40;20256;-52
2021/08/01 03:07:38;;;;;;;3.55;3.05;;;;;;;15.23;85.61;100025.25;3582375;40;20080;-51
2021/08/01 03:10:06;;;;;;;3.58;3.25;;;;;;;14.95;87.26;100019.31;3583399;40;20088;-51
2021/08/01 03:12:41;;;;;;;3.70;3.17;;;;;;;15.10;86.51;100010.66;3582754;39;20056;-54
2021/08/01 03:15:08;;;;;;;3.80;3.50;;;;;;;15.11;87.76;100009.81;3583305;40;20128;-51
2021/08/01 03:17:35;;;;;;;4.85;3.50;;;;;;;15.08;88.24;100013.28;3582859;40;20088;-54
2021/08/01 03:20:04;;;;;;;5.20;3.55;;;;;;;15.14;87.18;100015.81;3584280;40;20073;-52
2021/08/01 03:22:31;;;;;;;5.75;3.17;;;;;;;15.12;86.82;100019.28;3584114;39;20052;-53
2021/08/01 03:24:59;;;;;;;4.00;3.45;;;;;;;15.11;86.99;100015.81;3584333;40;20418;-52
2021/08/01 03:27:26;;;;;;;4.13;3.60;;;;;;;14.97;87.88;100010.72;3584146;40;20493;-52
2021/08/01 03:29:53;;;;;;;3.80;3.50;;;;;;;14.99;87.64;100016.72;3584743;40;20056;-55
2021/08/01 03:32:22;;;;;;;6.03;4.00;;;;;;;14.87;88.99;100014.19;3584492;39;20048;-51
2021/08/01 03:34:49;;;;;;;4.07;3.72;;;;;;;14.77;89.04;100015.06;3576897;40;20092;-52
2021/08/01 03:37:16;;;;;;;5.75;3.60;;;;;;;14.56;90.60;100007.38;3584781;40;20108;-52
2021/08/01 03:39:43;;;;;;;3.97;3.55;;;;;;;14.56;90.77;100016.00;3580436;40;20348;-53
2021/08/01 03:42:10;;;;;;;3.72;3.42;;;;;;;14.64;90.10;100013.38;3584212;39;20129;-50
2021/08/01 03:44:37;;;;;;;4.90;3.90;;;;;;;14.72;89.35;100012.50;3583809;40;20096;-51
2021/08/01 03:47:04;;;;;;;5.40;3.60;;;;;;;14.49;91.08;100019.41;3584434;40;20037;-50
2021/08/01 03:49:31;;;;;;;3.80;3.50;;;;;;;14.37;92.41;100006.50;3583828;40;20114;-53
2021/08/01 03:51:58;;;;;;;6.20;3.80;;;;;;;14.54;92.07;100016.84;3581384;39;20432;-52
2021/08/01 03:54:26;;;;;;;4.93;3.65;;;;;;;14.54;91.64;100012.53;3583963;40;20088;-51
2021/08/01 03:56:54;;;;;;;7.57;4.38;;;;;;;14.69;92.02;100014.22;3584957;40;20096;-50
2021/08/01 03:59:21;;;;;;;4.85;3.75;;;;;;;14.66;92.07;100021.97;3583925;40;20306;-54
2021/08/01 04:01:48;;;;;;;5.40;4.00;;;;;;;14.62;93.19;100010.81;3576543;39;20084;-50
2021/08/01 04:04:15;;;;;;;4.00;3.45;;;;;;;14.42;94.33;100015.97;3584338;40;20078;-53
2021/08/01 04:06:42;;;;;;;6.60;4.15;;;;;;;14.74;93.34;100015.06;3583958;40;20051;-50
2021/08/01 04:09:09;;;;;;;8.63;3.90;;;;;;;14.54;93.92;100022.00;3584501;40;20255;-51
2021/08/01 04:11:39;;;;;;;5.35;3.88;;;;;;;14.71;93.12;100020.25;3584038;40;20112;-53
2021/08/01 04:14:06;;;;;;;6.15;3.70;;;;;;;14.81;92.59;100016.78;3581891;40;20119;-53
2021/08/01 04:16:35;;;;;;;5.97;4.53;;;;;;;14.87;93.09;100018.47;3583082;40;20115;-55
2021/08/01 04:19:10;;;;;;;5.80;4.00;;;;;;;14.67;94.07;100019.38;3584496;40;20096;-54
2021/08/01 04:21:38;;;;;;;8.48;4.40;;;;;;;14.65;94.45;100022.81;3584089;40;20063;-55
2021/08/01 04:24:05;;;;;;;3.92;3.55;;;;;;;14.81;93.61;100021.09;3584454;40;20062;-55
2021/08/01 04:26:32;;;;;;;5.40;3.95;;;;;;;14.66;94.72;100016.81;3583924;40;20072;-55
2021/08/01 04:28:59;;;;;;;5.93;3.60;;;;;;;14.92;94.36;100022.75;3584070;40;20048;-52
2021/08/01 04:31:26;;;;;;;5.88;4.07;;;;;;;14.95;93.60;100020.19;3583582;40;20060;-55
2021/08/01 04:33:53;;;;;;;4.97;3.80;;;;;;;14.90;94.75;100016.75;3584785;40;20148;-53
2021/08/01 04:36:20;;;;;;;10.65;4.70;;;;;;;15.21;93.98;100021.81;3584139;40;20092;-51
2021/08/01 04:38:47;;;;;;;7.53;4.35;;;;;;;15.27;94.61;100017.47;3584041;40;20081;-52
2021/08/01 04:41:14;;;;;;;7.93;5.07;;;;;;;15.15;95.16;100020.09;3584012;40;20051;-52
2021/08/01 04:43:41;;;;;;;5.78;4.40;;;;;;;15.19;95.14;100015.78;3583644;40;20402;-54
2021/08/01 04:46:09;;;;;;;14.55;5.30;;;;;;;15.33;94.40;100013.16;3584165;40;20110;-54
2021/08/01 04:48:36;;;;;;;5.43;4.05;;;;;;;15.42;94.71;100013.97;3583678;40;20056;-52
2021/08/01 04:51:03;;;;;;;5.28;4.15;;;;;;;15.56;93.34;100016.47;3584268;40;20049;-53
2021/08/01 04:53:30;;;;;;;4.13;3.72;;;;;;;15.71;92.31;100020.72;3583584;40;20040;-52
2021/08/01 04:55:57;;;;;;;6.00;4.18;;;;;;;15.47;93.15;100016.53;3584159;40;20063;-54
2021/08/01 04:58:24;;;;;;;6.90;4.97;;;;;;;15.64;93.03;100022.50;3584051;40;20052;-53
2021/08/01 05:00:51;;;;;;;4.63;4.07;;;;;;;15.58;93.52;100024.22;3583779;40;20255;-51
2021/08/01 05:03:18;;;;;;;5.38;3.88;;;;;;;15.43;94.13;100033.75;3583787;40;20410;-52
2021/08/01 05:05:45;;;;;;;5.40;3.78;;;;;;;15.75;93.28;100033.59;3583619;40;20052;-52
2021/08/01 05:08:12;;;;;;;4.38;4.00;;;;;;;16.03;91.50;100036.84;3583568;40;20113;-54
2021/08/01 05:10:39;;;;;;;6.22;4.40;;;;;;;15.89;92.33;100038.69;3583714;40;20080;-52
2021/08/01 05:13:07;;;;;;;7.88;4.30;;;;;;;15.96;91.76;100040.38;3583714;40;20088;-51
2021/08/01 05:15:34;;;;;;;5.18;3.95;;;;;;;15.93;92.77;100040.38;3583311;40;20088;-54
2021/08/01 05:18:03;;;;;;;6.55;3.85;;;;;;;15.99;92.56;100039.47;3578901;40;20084;-54
2021/08/01 05:20:30;;;;;;;5.22;3.80;;;;;;;16.21;90.98;100038.44;3583264;40;20066;-51
2021/08/01 05:22:57;;;;;;;6.18;4.32;;;;;;;16.36;89.86;100040.06;3583700;40;20060;-53
2021/08/01 05:25:24;;;;;;;14.43;5.85;;;;;;;16.31;91.68;100028.88;3583912;40;20084;-54
2021/08/01 05:27:51;;;;;;;12.15;5.03;;;;;;;15.97;91.51;100044.66;3584222;40;20056;-54
2021/08/01 05:30:18;;;;;;;9.25;4.40;;;;;;;16.33;90.20;100037.50;3583924;40;20097;-52
2021/08/01 05:32:45;;;;;;;10.13;4.78;;;;;;;16.18;91.51;100030.75;3583584;40;20091;-52
2021/08/01 05:35:12;;;;;;;6.85;4.40;;;;;;;16.17;91.61;100034.16;3583864;40;20056;-51
2021/08/01 05:37:39;;;;;;;4.65;4.00;;;;;;;16.54;89.38;100044.19;3583488;40;20056;-53
2021/08/01 05:40:09;;;;;;;5.85;4.13;;;;;;;16.46;88.67;100051.19;3583346;40;20055;-55
2021/08/01 05:42:36;;;;;;;4.53;4.13;;;;;;;16.44;90.12;100040.84;3583313;40;20053;-51
2021/08/01 05:45:05;;;;;;;3.97;3.65;;;;;;;16.37;90.10;100056.44;3583911;40;20048;-52
2021/08/01 05:47:35;;;;;;;5.68;4.07;;;;;;;16.79;87.88;100056.06;3583549;40;20092;-54
2021/08/01 05:50:03;;;;;;;4.07;3.67;;;;;;;16.81;87.48;100056.03;3583626;40;20080;-52
2021/08/01 05:52:30;;;;;;;4.75;4.35;;;;;;;16.59;89.54;100051.91;3583221;40;20086;-51
2021/08/01 05:54:57;;;;;;;4.30;3.78;;;;;;;16.88;86.95;100036.16;3583824;40;20093;-55
2021/08/01 05:57:23;;;;;;;4.88;4.22;;;;;;;17.01;86.19;100032.56;3583584;40;20084;-57
2021/08/01 05:59:50;;;;;;;3.97;3.60;;;;;;;17.02;86.78;100029.09;3583906;40;20059;-54
2021/08/01 06:02:17;;;;;;;4.43;3.97;;;;;;;17.11;87.03;100031.59;3579505;40;20410;-53
2021/08/01 06:04:45;;;;;;;4.45;4.05;;;;;;;17.15;85.24;100035.00;3575210;40;20405;-57
2021/08/01 06:07:14;;;;;;;4.60;4.20;;;;;;;17.21;86.85;100035.78;3574305;40;20122;-55
2021/08/01 06:09:43;;;;;;;5.63;4.60;;;;;;;17.13;85.57;100035.00;3582141;40;20110;-51
2021/08/01 06:12:10;;;;;;;5.75;4.22;;;;;;;16.85;88.12;100038.78;3582598;40;20343;-53
2021/08/01 06:14:37;;;;;;;6.50;4.40;;;;;;;17.03;87.63;100034.25;3582663;40;20084;-55
2021/08/01 06:17:04;;;;;;;6.50;4.70;;;;;;;17.33;85.66;100041.66;3583050;40;20040;-53
2021/08/01 06:19:32;;;;;;;5.32;4.82;;;;;;;17.09;86.86;100037.66;3579866;40;20074;-54
2021/08/01 06:21:58;;;;;;;4.95;4.45;;;;;;;17.43;86.78;100038.09;3577739;40;20097;-52
2021/08/01 06:24:25;;;;;;;5.18;4.72;;;;;;;17.73;85.24;100044.59;3582317;40;20395;-53
2021/08/01 06:26:52;;;;;;;4.80;4.38;;;;;;;17.52;84.40;100040.56;3583737;40;20081;-56
2021/08/01 06:29:19;;;;;;;5.40;4.90;;;;;;;17.64;85.33;100039.53;3579294;40;20111;-56
2021/08/01 06:31:46;;;;;;;5.00;4.50;;;;;;;17.48;84.97;100037.16;3583287;40;21479;-51
2021/08/01 06:34:13;;;;;;;6.07;4.53;;;;;;;17.48;85.48;100039.75;3583887;40;20041;-58
2021/08/01 06:36:40;;;;;;;5.40;4.20;;;;;;;17.70;86.54;100044.63;3583210;40;20041;-56
2021/08/01 06:39:10;;;;;;;4.55;4.15;;;;;;;17.68;85.45;100049.84;3583458;40;20088;-54
2021/08/01 06:41:37;;;;;;;4.85;4.38;;;;;;;17.70;85.67;100053.28;3583136;40;20073;-57
2021/08/01 06:44:04;;;;;;;4.47;4.13;;;;;;;17.89;83.69;100038.34;3583778;40;20497;-55
2021/08/01 06:46:32;;;;;;;5.22;4.72;;;;;;;18.14;82.19;100043.16;3580821;40;20337;-58
2021/08/01 06:48:59;;;;;;;4.82;4.30;;;;;;;18.05;81.87;100047.59;3582027;40;20055;-56
2021/08/01 06:51:28;;;;;;;7.32;4.40;;;;;;;17.80;83.73;100048.84;3584032;40;20057;-55
2021/08/01 06:53:58;;;;;;;5.05;4.50;;;;;;;18.29;81.84;100058.47;3583322;40;20041;-56
2021/08/01 06:56:29;;;;;;;4.18;3.78;;;;;;;18.45;80.86;100052.16;3583077;40;20057;-56
2021/08/01 06:58:56;;;;;;;3.92;3.50;;;;;;;18.48;81.10;100057.28;3583426;40;20087;-56
2021/08/01 07:01:23;;;;;;;5.05;3.83;;;;;;;18.45;80.73;100056.50;3583133;40;20048;-53
2021/08/01 07:03:50;;;;;;;4.03;3.72;;;;;;;18.43;80.31;100071.19;3582999;40;20133;-58
2021/08/01 07:06:17;;;;;;;5.50;3.85;;;;;;;18.45;80.74;100062.53;3583229;40;20529;-56
2021/08/01 07:08:44;;;;;;;4.70;3.80;;;;;;;18.28;81.33;100057.59;3582494;40;20103;-56
2021/08/01 07:11:11;;;;;;;4.65;3.42;;;;;;;18.74;78.52;100061.19;3583277;40;20737;-54
2021/08/01 07:13:39;;;;;;;4.05;3.53;;;;;;;18.53;77.90;100059.78;3581942;40;20081;-50
2021/08/01 07:16:06;;;;;;;4.45;3.75;;;;;;;18.48;80.29;100056.41;3583344;40;20052;-52
2021/08/01 07:18:33;;;;;;;4.18;3.60;;;;;;;18.60;80.19;100057.97;3582669;40;20135;-54
2021/08/01 07:21:00;;;;;;;3.95;3.58;;;;;;;18.38;77.81;100055.72;3582725;40;20080;-54
2021/08/01 07:23:27;;;;;;;5.05;3.50;;;;;;;18.69;80.07;100061.28;3582488;40;20071;-52
2021/08/01 07:25:54;;;;;;;4.47;3.20;;;;;;;19.11;76.69;100060.50;3581439;40;20096;-54
2021/08/01 07:28:22;;;;;;;4.85;3.08;;;;;;;19.24;77.38;100059.38;3582721;40;20083;-53
2021/08/01 07:30:51;;;;;;;4.55;3.33;;;;;;;19.73;73.01;100058.38;3575546;40;20112;-54
2021/08/01 07:33:23;;;;;;;3.95;3.53;;;;;;;19.73;71.41;100048.84;3582937;40;20329;-55
2021/08/01 07:35:50;;;;;;;3.70;3.40;;;;;;;19.40;73.36;100049.53;3575697;40;20342;-54
2021/08/01 07:38:18;;;;;;;4.25;3.55;;;;;;;19.35;73.10;100047.03;3579325;40;20041;-55
2021/08/01 07:40:45;;;;;;;3.33;3.03;;;;;;;19.92;73.62;100049.31;3582363;40;20036;-53
2021/08/01 07:43:12;;;;;;;3.92;2.70;;;;;;;19.67;72.06;100045.53;3583188;40;20392;-51
2021/08/01 07:45:39;;;;;;;4.18;3.20;;;;;;;19.77;72.77;100047.03;3581699;40;20069;-57
2021/08/01 07:48:06;;;;;;;3.80;3.00;;;;;;;19.72;70.74;100046.28;3580018;40;20060;-57
2021/08/01 07:50:36;;;;;;;2.90;2.60;;;;;;;19.94;69.69;100047.50;3581012;40;20076;-53
2021/08/01 07:53:04;;;;;;;4.28;2.63;;;;;;;20.00;69.72;100044.75;3581647;40;20053;-54
2021/08/01 07:55:31;;;;;;;3.63;2.63;;;;;;;20.71;69.32;100046.50;3582305;40;20099;-53
2021/08/01 07:57:58;;;;;;;5.43;2.80;;;;;;;20.74;65.77;100040.34;3582877;40;20045;-55
2021/08/01 08:00:28;;;;;;;2.95;2.55;;;;;;;20.27;68.38;100037.19;3583158;40;20422;-53
2021/08/01 08:02:55;;;;;;;5.20;2.67;;;;;;;20.61;66.32;100039.81;3583531;40;20398;-52
2021/08/01 08:05:23;;;;;;;3.00;2.70;;;;;;;20.63;65.33;100039.81;3584550;40;20056;-54
2021/08/01 08:07:50;;;;;;;3.00;2.30;;;;;;;20.67;66.34;100041.44;3577113;40;20080;-53
2021/08/01 08:10:17;;;;;;;3.15;2.85;;;;;;;21.19;64.41;100048.66;3584323;40;20059;-51
2021/08/01 08:12:44;;;;;;;2.78;2.28;;;;;;;21.26;63.33;100046.72;3577773;40;20690;-57
2021/08/01 08:15:12;;;;;;;4.05;2.65;;;;;;;21.28;64.09;100045.78;3581845;40;20520;-52
2021/08/01 08:17:40;;;;;;;2.75;2.40;;;;;;;21.72;62.93;100058.44;3583887;40;20138;-54
2021/08/01 08:20:09;;;;;;;2.47;2.28;;;;;;;21.28;64.33;100060.56;3584321;40;20059;-54
2021/08/01 08:22:36;;;;;;;2.03;1.90;;;;;;;21.51;64.69;100052.97;3583540;40;20051;-51
2021/08/01 08:25:08;;;;;;;2.20;2.00;;;;;;;21.73;60.53;100054.94;3584251;40;20052;-52
2021/08/01 08:27:36;;;;;;;3.42;2.40;;;;;;;21.60;61.82;100050.09;3583924;40;20056;-57
2021/08/01 08:30:06;;;;;;;3.13;2.83;;;;;;;22.01;62.09;100053.19;3582547;40;20065;-52
2021/08/01 08:32:34;;;;;;;3.45;1.80;;;;;;;21.01;63.37;100047.41;3574754;40;20056;-50
2021/08/01 08:35:08;;;;;;;4.13;2.67;;;;;;;21.54;62.62;100047.69;3576190;40;20061;-53
2021/08/01 08:37:47;;;;;;;2.85;2.60;;;;;;;21.89;62.18;100050.97;3577310;40;20053;-51
2021/08/01 08:40:20;;;;;;;3.22;2.38;;;;;;;21.34;61.54;100042.19;3577144;40;20080;-54
2021/08/01 08:42:50;;;;;;;3.03;2.55;;;;;;;21.80;61.51;100054.69;3577008;40;20055;-51
2021/08/01 08:45:18;;;;;;;4.18;2.53;;;;;;;21.75;62.06;100059.19;3576593;40;20073;-50
2021/08/01 08:47:48;;;;;;;2.72;2.28;;;;;;;21.69;60.00;100063.75;3577259;40;20336;-50
2021/08/01 08:50:19;;;;;;;4.25;2.45;;;;;;;22.08;61.91;100062.50;3575695;40;20085;-52
2021/08/01 08:52:50;;;;;;;4.13;2.67;;;;;;;22.29;58.15;100061.00;3577264;40;20060;-53
2021/08/01 08:55:21;;;;;;;4.75;2.40;;;;;;;22.17;59.63;100047.50;3576521;40;20077;-52
2021/08/01 08:57:56;;;;;;;2.70;2.50;;;;;;;22.30;58.11;100056.66;3575256;40;20056;-52
2021/08/01 09:00:26;;;;;;;3.10;2.40;;;;;;;21.99;61.08;100052.38;3575381;40;20053;-52
2021/08/01 09:02:56;;;;;;;2.90;2.60;;;;;;;22.11;59.41;100057.22;3580404;40;20060;-51
2021/08/01 09:05:23;;;;;;;2.95;2.60;;;;;;;21.81;60.29;100051.19;3578241;40;20089;-52
2021/08/01 09:07:51;;;;;;;3.50;2.42;;;;;;;22.04;60.06;100055.69;3575078;40;20092;-50
2021/08/01 09:10:19;;;;;;;4.22;2.60;;;;;;;22.04;58.76;100062.66;3574990;40;20065;-49
2021/08/01 09:12:48;;;;;;;3.55;2.47;;;;;;;21.88;59.99;100053.63;3576094;40;20052;-51
2021/08/01 09:15:20;;;;;;;4.00;2.53;;;;;;;21.99;59.54;100059.34;3575419;40;20079;-50
2021/08/01 09:17:50;;;;;;;2.35;2.15;;;;;;;22.08;59.40;100054.69;3575767;40;20073;-50
2021/08/01 09:20:22;;;;;;;3.55;2.78;;;;;;;21.97;61.04;100045.50;3573913;40;20343;-49
2021/08/01 09:23:01;;;;;;;2.80;2.55;;;;;;;22.52;59.04;100036.75;3575017;40;20059;-56
2021/08/01 09:25:34;;;;;;;3.08;2.78;;;;;;;22.25;58.00;100045.50;3574936;40;20079;-50
2021/08/01 09:28:11;;;;;;;3.33;2.20;;;;;;;22.41;59.36;100040.63;3573983;40;20044;-51
2021/08/01 09:30:51;;;;;;;3.33;2.22;;;;;;;23.24;57.23;100043.81;3575191;40;20047;-52
2021/08/01 09:33:50;;;;;;;2.80;2.55;;;;;;;23.38;55.39;100044.16;3573020;40;20104;-50
2021/08/01 09:36:24;;;;;;;3.28;2.90;;;;;;;23.71;57.04;100047.31;3573793;40;20101;-52
2021/08/01 09:38:53;;;;;;;2.78;2.58;;;;;;;23.60;56.75;100041.59;3572084;40;20057;-51
2021/08/01 09:41:36;;;;;;;3.05;2.75;;;;;;;23.38;55.87;100041.53;3574847;40;20333;-51
2021/08/01 09:44:07;;;;;;;2.85;2.47;;;;;;;23.57;56.35;100044.31;3574003;40;20037;-51
2021/08/01 09:46:45;;;;;;;3.97;2.95;;;;;;;23.77;54.46;100038.38;3575254;40;20426;-54
2021/08/01 09:49:17;;;;;;;5.07;2.75;;;;;;;23.97;54.92;100046.25;3574622;40;20085;-50
2021/08/01 09:51:48;;;;;;;4.35;2.67;;;;;;;23.81;54.89;100048.66;3574626;40;20052;-51
2021/08/01 09:54:17;;;;;;;2.70;2.40;;;;;;;24.72;51.61;100037.94;3573911;40;20160;-54
2021/08/01 09:56:58;;;;;;;2.55;2.35;;;;;;;24.41;50.29;100042.78;3576060;40;20056;-50
2021/08/01 09:59:31;;;;;;;5.47;2.75;;;;;;;25.13;49.26;100041.38;3582067;40;20048;-54
2021/08/01 10:02:03;;;;;;;3.03;2.50;;;;;;;25.33;48.49;100037.03;3581325;40;20092;-54
2021/08/01 10:04:40;;;;;;;3.65;2.85;;;;;;;24.90;49.70;100044.97;3576230;40;20056;-51
2021/08/01 10:07:08;;;;;;;3.30;2.70;;;;;;;24.31;49.63;100039.66;3579269;40;20108;-51
2021/08/01 10:09:37;;;;;;;5.25;2.70;;;;;;;24.00;52.41;100043.53;3581191;40;20067;-49
2021/08/01 10:12:06;;;;;;;2.75;2.55;;;;;;;24.61;50.39;100046.25;3582441;40;20052;-50
2021/08/01 10:14:35;;;;;;;3.08;2.78;;;;;;;24.11;51.91;100043.94;3576168;40;20036;-50
2021/08/01 10:17:03;;;;;;;2.50;2.30;;;;;;;23.52;52.97;100036.66;3576945;40;20060;-54
2021/08/01 10:19:31;;;;;;;2.92;2.72;;;;;;;23.19;54.81;100032.69;3575602;40;20053;-51
2021/08/01 10:22:04;;;;;;;2.80;2.53;;;;;;;23.46;55.70;100028.19;3574166;40;20081;-52
2021/08/01 10:24:35;;;;;;;4.13;2.25;;;;;;;23.37;52.32;100039.84;3578090;40;20426;-52
2021/08/01 10:27:07;;;;;;;3.00;2.45;;;;;;;23.57;52.84;100034.75;3583003;40;20092;-57
2021/08/01 10:29:51;;;;;;;3.78;3.10;;;;;;;23.98;50.98;100037.50;3582913;40;20076;-55
2021/08/01 10:32:21;;;;;;;2.65;2.45;;;;;;;24.43;49.84;100039.19;3582617;40;20813;-56
2021/08/01 10:35:09;;;;;;;2.67;2.15;;;;;;;23.50;51.23;100033.25;3582414;40;20056;-53
2021/08/01 10:37:51;;;;;;;2.42;2.22;;;;;;;24.35;49.08;100036.84;3581766;40;20080;-49
2021/08/01 10:40:22;;;;;;;2.83;2.53;;;;;;;24.66;49.61;100032.97;3582559;40;21075;-54
2021/08/01 10:42:53;;;;;;;5.25;3.15;;;;;;;23.98;50.31;100034.03;3582129;40;20098;-52
2021/08/01 10:45:20;;;;;;;2.75;2.53;;;;;;;23.75;50.70;100025.34;3582439;40;20080;-49
2021/08/01 10:47:52;;;;;;;4.03;2.50;;;;;;;23.44;52.32;100032.66;3582974;40;20036;-54
2021/08/01 10:50:25;;;;;;;3.50;3.20;;;;;;;23.27;53.08;100025.44;3583624;40;20132;-54
2021/08/01 10:53:20;;;;;;;3.33;3.03;;;;;;;22.98;54.64;100035.19;3583423;40;20092;-52
2021/08/01 10:55:51;;;;;;;3.08;2.88;;;;;;;23.45;53.49;100024.75;3582996;40;20073;-54
2021/08/01 10:58:18;;;;;;;4.80;2.63;;;;;;;23.35;51.65;100024.25;3582969;40;20045;-57
2021/08/01 11:01:01;;;;;;;7.43;3.35;;;;;;;23.90;52.73;100023.91;3582787;40;20544;-53
2021/08/01 11:03:30;;;;;;;3.13;2.53;;;;;;;24.15;50.54;100015.91;3582595;40;20137;-52
2021/08/01 11:05:58;;;;;;;2.45;2.28;;;;;;;23.92;50.73;100015.97;3583328;40;20382;-53
2021/08/01 11:08:25;;;;;;;2.55;2.38;;;;;;;24.88;50.97;100020.66;3582771;40;20085;-52
2021/08/01 11:11:13;;;;;;;3.50;2.58;;;;;;;25.23;48.11;100014.75;3582866;40;20093;-51
2021/08/01 11:13:44;;;;;;;5.03;2.65;;;;;;;25.47;47.08;100018.00;3582732;40;20088;-51
2021/08/01 11:16:40;;;;;;;3.75;2.92;;;;;;;24.48;51.00;100008.41;3583162;40;20059;-54
2021/08/01 11:19:33;;;;;;;2.60;2.40;;;;;;;24.67;48.80;100010.25;3576515;40;20088;-53
2021/08/01 11:22:00;;;;;;;4.53;2.53;;;;;;;24.00;52.06;100012.16;3582558;40;20049;-50
2021/08/01 11:24:27;;;;;;;4.22;2.70;;;;;;;23.35;52.55;100013.78;3582863;40;20097;-49
2021/08/01 11:27:09;;;;;;;4.35;2.70;;;;;;;23.01;53.86;100003.72;3583247;40;20056;-51
2021/08/01 11:30:05;;;;;;;3.95;2.50;;;;;;;23.15;53.60;100008.44;3582226;40;20044;-53
2021/08/01 11:32:51;;;;;;;;;;;;;;;23.17;54.26;100005.78;3574407;40;20340;-53
2021/08/01 11:35:21;;;;;;;2.85;2.33;;;;;;;23.17;54.98;100005.78;3582896;40;19969;-53
2021/08/01 11:38:09;;;;;;;2.60;2.40;;;;;;;22.82;54.67;100008.72;3576187;40;20055;-54
2021/08/01 11:40:43;;;;;;;3.50;2.63;;;;;;;22.77;55.03;100000.22;3583802;40;20051;-56
2021/08/01 11:43:10;;;;;;;3.53;2.45;;;;;;;23.32;53.10;99999.97;3584350;40;20317;-52